Harrisburg, Illinois
Current Conditions -  °F | °C
As of 10:15 AM on Friday 24 Oct 2014 (Local Time) from KHSB Reporting Station
Broken Clouds Broken Clouds  
Wind Chill: 60°   Ceiling: 3100
Heat Index: 60°   Visibility: 10mi
Dew Point: 52°   Wind: 0mph
Humidity: 75%   Direction: NA
Pressure: 30.14"   Gusts: NA
Location:  37.74°N, 88.54°W
Report Text: KHSB 241515Z AUTO 00000KT 10SM BKN031 16/11 A3014 RMK AO2 T01570112
Loading
Personal Weather Stations






























Interactive Weather Map
Tropical Storm Tracking
New forecast layout! Learn more

10-Day Weather Forecast

Advertisements
Track Severe Weather on mobile